createdAt,value
2022-09-21T00:01:20.642Z,10.30
2022-09-21T00:03:48.275Z,10.30
2022-09-21T00:06:17.813Z,10.30
2022-09-21T00:08:45.880Z,10.20
2022-09-21T00:11:14.088Z,10.30
2022-09-21T00:13:41.901Z,10.30
2022-09-21T00:16:09.196Z,10.20
2022-09-21T00:18:37.506Z,10.20
2022-09-21T00:21:09.027Z,10.20
2022-09-21T00:23:36.798Z,10.20
2022-09-21T00:26:08.101Z,10.20
2022-09-21T00:28:34.713Z,10.10
2022-09-21T00:31:06.759Z,10.20
2022-09-21T00:33:34.498Z,10.20
2022-09-21T00:36:06.248Z,10.20
2022-09-21T00:38:33.972Z,10.00
2022-09-21T00:41:00.691Z,10.10
2022-09-21T00:43:27.381Z,10.10
2022-09-21T00:46:28.752Z,10.10
2022-09-21T00:48:55.614Z,10.00
2022-09-21T00:51:22.495Z,9.90
2022-09-21T00:53:54.261Z,10.00
2022-09-21T00:56:21.190Z,10.00
2022-09-21T00:58:50.628Z,10.00
2022-09-21T01:01:18.556Z,10.00
2022-09-21T01:03:46.931Z,10.00
2022-09-21T01:06:14.831Z,10.00
2022-09-21T01:08:42.486Z,10.10
2022-09-21T01:11:17.673Z,10.00
2022-09-21T01:14:07.844Z,10.00
2022-09-21T01:16:49.507Z,10.00
2022-09-21T01:19:18.898Z,10.00
2022-09-21T01:22:05.770Z,10.00
2022-09-21T01:24:51.314Z,10.00
2022-09-21T01:28:29.815Z,10.10
2022-09-21T01:31:00.713Z,10.00
2022-09-21T01:33:33.337Z,10.00
2022-09-21T01:36:12.584Z,10.00
2022-09-21T01:38:45.382Z,10.10
2022-09-21T01:41:14.825Z,10.10
2022-09-21T01:43:49.569Z,10.10
2022-09-21T01:46:20.682Z,10.10
2022-09-21T01:48:52.985Z,10.10
2022-09-21T01:51:22.130Z,10.10
2022-09-21T01:53:50.939Z,10.10
2022-09-21T01:56:25.597Z,10.10
2022-09-21T01:58:52.115Z,10.00
2022-09-21T02:01:22.965Z,10.00
2022-09-21T02:03:54.282Z,10.00
2022-09-21T02:06:21.417Z,9.90
2022-09-21T02:08:48.292Z,9.90
2022-09-21T02:11:14.892Z,9.80
2022-09-21T02:13:46.130Z,9.90
2022-09-21T02:16:36.735Z,9.80
2022-09-21T02:19:12.316Z,9.80
2022-09-21T02:21:54.219Z,9.70
2022-09-21T02:24:47.103Z,9.60
2022-09-21T02:27:23.062Z,9.60
2022-09-21T02:30:23.375Z,9.60
2022-09-21T02:32:59.096Z,9.60
2022-09-21T02:35:31.653Z,9.60
2022-09-21T02:38:15.182Z,9.60
2022-09-21T02:40:54.583Z,9.60
2022-09-21T02:43:46.643Z,9.60
2022-09-21T02:46:25.696Z,9.60
2022-09-21T02:48:56.670Z,9.60
2022-09-21T02:51:32.157Z,9.60
2022-09-21T02:54:04.053Z,9.70
2022-09-21T02:56:34.809Z,9.70
2022-09-21T02:59:04.476Z,9.60
2022-09-21T03:01:32.957Z,9.60
2022-09-21T03:04:01.552Z,9.50
2022-09-21T03:06:28.144Z,9.50
2022-09-21T03:08:54.952Z,9.50
2022-09-21T03:11:21.533Z,9.40
2022-09-21T03:13:48.098Z,9.40
2022-09-21T03:16:14.756Z,9.30
2022-09-21T03:18:43.074Z,9.30
2022-09-21T03:21:12.092Z,9.20
2022-09-21T03:23:39.838Z,9.20
2022-09-21T03:26:06.697Z,9.20
2022-09-21T03:28:35.767Z,9.20
2022-09-21T03:31:02.523Z,9.20
2022-09-21T03:33:29.139Z,9.20
2022-09-21T03:35:58.267Z,9.10
2022-09-21T03:38:26.824Z,9.10
2022-09-21T03:40:57.713Z,9.10
2022-09-21T03:43:27.543Z,9.10
2022-09-21T03:45:54.141Z,9.00
2022-09-21T03:48:21.535Z,9.00
2022-09-21T03:50:48.425Z,9.00
2022-09-21T03:53:15.153Z,8.90
2022-09-21T03:55:43.277Z,8.90
2022-09-21T03:58:10.241Z,8.90
2022-09-21T04:00:39.016Z,8.90
2022-09-21T04:03:07.617Z,8.90
2022-09-21T04:05:34.245Z,8.90
2022-09-21T04:08:04.111Z,8.80
2022-09-21T04:10:33.155Z,8.70
2022-09-21T04:13:01.303Z,8.50
2022-09-21T04:15:29.346Z,8.50
2022-09-21T04:17:56.441Z,8.50
2022-09-21T04:20:23.716Z,8.40
2022-09-21T04:22:56.126Z,8.50
2022-09-21T04:25:22.691Z,8.50
2022-09-21T04:27:49.371Z,8.50
2022-09-21T04:30:22.665Z,8.40
2022-09-21T04:32:49.305Z,8.50
2022-09-21T04:35:18.034Z,8.50
2022-09-21T04:37:44.695Z,8.50
2022-09-21T04:40:11.310Z,8.50
2022-09-21T04:42:38.036Z,8.50
2022-09-21T04:45:07.792Z,8.50
2022-09-21T04:47:34.371Z,8.50
2022-09-21T04:50:00.981Z,8.40
2022-09-21T04:52:27.520Z,8.40
2022-09-21T04:54:54.145Z,8.40
2022-09-21T04:57:25.673Z,8.40
2022-09-21T04:59:52.273Z,8.40
2022-09-21T05:02:18.811Z,8.30
2022-09-21T05:04:50.084Z,8.30
2022-09-21T05:07:17.568Z,8.30
2022-09-21T05:10:03.572Z,8.30
2022-09-21T05:12:31.687Z,8.30
2022-09-21T05:14:59.857Z,8.30
2022-09-21T05:17:26.999Z,8.30
2022-09-21T05:19:53.583Z,8.20
2022-09-21T05:22:22.050Z,8.20
2022-09-21T05:24:48.606Z,8.20
2022-09-21T05:27:15.288Z,8.20
2022-09-21T05:29:42.247Z,8.20
2022-09-21T05:32:13.715Z,8.20
2022-09-21T05:34:43.432Z,8.10
2022-09-21T05:37:40.665Z,8.10
2022-09-21T05:40:09.760Z,8.00
2022-09-21T05:42:36.672Z,8.00
2022-09-21T05:45:05.818Z,8.00
2022-09-21T05:47:41.402Z,8.00
2022-09-21T05:50:30.207Z,8.00
2022-09-21T05:52:56.721Z,8.10
2022-09-21T05:55:46.876Z,8.00
2022-09-21T05:58:31.538Z,8.10
2022-09-21T06:01:19.774Z,8.10
2022-09-21T06:03:53.638Z,8.00
2022-09-21T06:06:20.912Z,8.10
2022-09-21T06:08:47.574Z,8.00
2022-09-21T06:11:14.480Z,8.10
2022-09-21T06:13:41.408Z,8.10
2022-09-21T06:16:09.124Z,8.20
2022-09-21T06:18:41.152Z,8.20
2022-09-21T06:21:14.178Z,8.30
2022-09-21T06:23:40.846Z,8.30
2022-09-21T06:26:07.383Z,8.30
2022-09-21T06:28:33.939Z,8.30
2022-09-21T06:31:00.582Z,8.40
2022-09-21T06:33:28.204Z,8.40
2022-09-21T06:36:01.254Z,8.40
2022-09-21T06:38:29.313Z,8.50
2022-09-21T06:41:05.629Z,8.60
2022-09-21T06:43:34.688Z,8.60
2022-09-21T06:46:02.912Z,8.70
2022-09-21T06:48:31.041Z,8.70
2022-09-21T06:51:05.761Z,8.90
2022-09-21T06:53:34.386Z,8.90
2022-09-21T06:56:06.601Z,9.00
2022-09-21T06:58:34.517Z,9.10
2022-09-21T07:01:06.421Z,9.10
2022-09-21T07:03:37.599Z,9.10
2022-09-21T07:06:07.442Z,9.20
2022-09-21T07:11:25.105Z,9.30
2022-09-21T07:13:53.064Z,9.40
2022-09-21T07:16:22.142Z,9.40
2022-09-21T07:18:48.880Z,9.50
2022-09-21T07:21:16.123Z,9.50
2022-09-21T07:23:42.725Z,9.60
2022-09-21T07:26:11.827Z,9.70
2022-09-21T07:28:38.735Z,9.80
2022-09-21T07:31:14.161Z,9.80
2022-09-21T07:33:41.894Z,9.90
2022-09-21T07:36:12.721Z,10.00
2022-09-21T07:38:41.500Z,10.10
2022-09-21T07:41:10.191Z,10.10
2022-09-21T07:43:39.373Z,10.20
2022-09-21T07:46:07.349Z,10.30
2022-09-21T07:48:33.966Z,10.30
2022-09-21T07:51:04.843Z,10.40
2022-09-21T07:53:34.973Z,10.50
2022-09-21T07:56:10.263Z,10.60
2022-09-21T07:58:56.693Z,10.70
2022-09-21T08:01:24.322Z,10.70
2022-09-21T08:03:52.799Z,10.80
2022-09-21T08:06:20.554Z,10.90
2022-09-21T08:08:48.121Z,10.90
2022-09-21T08:11:22.113Z,11.00
2022-09-21T08:13:52.387Z,11.00
2022-09-21T08:16:19.052Z,11.10
2022-09-21T08:18:45.654Z,11.10
2022-09-21T08:21:14.137Z,11.20
2022-09-21T08:23:42.679Z,11.30
2022-09-21T08:26:14.765Z,11.30
2022-09-21T08:28:41.322Z,11.30
2022-09-21T08:31:09.641Z,11.30
2022-09-21T08:33:36.441Z,11.40
2022-09-21T08:36:03.584Z,11.40
2022-09-21T08:38:38.202Z,11.50
2022-09-21T08:41:38.594Z,11.50
2022-09-21T08:44:18.288Z,11.60
2022-09-21T08:46:48.198Z,11.60
2022-09-21T08:49:21.371Z,11.60
2022-09-21T08:51:59.962Z,11.60
2022-09-21T08:54:51.837Z,11.60
2022-09-21T08:57:19.690Z,11.70
2022-09-21T08:59:48.328Z,11.80
2022-09-21T09:02:45.941Z,11.90
2022-09-21T09:05:41.109Z,11.90
2022-09-21T09:08:37.327Z,11.90
2022-09-21T09:11:25.489Z,11.90
2022-09-21T09:14:25.077Z,12.00
2022-09-21T09:17:03.843Z,12.10
2022-09-21T09:19:33.147Z,12.20
2022-09-21T09:22:04.251Z,12.20
2022-09-21T09:24:37.823Z,12.30
2022-09-21T09:27:38.408Z,12.30
2022-09-21T09:30:26.386Z,12.40
2022-09-21T09:33:02.595Z,12.50
2022-09-21T09:35:31.129Z,12.50
2022-09-21T09:38:05.885Z,12.60
2022-09-21T09:41:00.530Z,12.60
2022-09-21T09:44:20.773Z,12.60
2022-09-21T09:47:24.209Z,12.70
2022-09-21T09:50:00.035Z,12.70
2022-09-21T09:52:27.623Z,12.70
2022-09-21T09:54:54.643Z,12.80
2022-09-21T09:57:31.271Z,12.90
2022-09-21T10:00:12.080Z,12.90
2022-09-21T10:02:56.299Z,12.80
2022-09-21T10:05:24.399Z,12.90
2022-09-21T10:07:52.031Z,12.90
2022-09-21T10:10:41.002Z,13.00
2022-09-21T10:13:37.135Z,13.10
2022-09-21T10:16:09.831Z,13.20
2022-09-21T10:18:48.935Z,13.20
2022-09-21T10:21:23.809Z,13.20
2022-09-21T10:24:02.678Z,13.20
2022-09-21T10:26:36.814Z,13.30
2022-09-21T10:29:21.692Z,13.40
2022-09-21T10:31:56.986Z,13.40
2022-09-21T10:34:31.791Z,13.40
2022-09-21T10:37:22.753Z,13.40
2022-09-21T10:39:49.518Z,13.40
2022-09-21T10:42:18.649Z,13.50
2022-09-21T10:44:51.901Z,13.60
2022-09-21T10:47:36.585Z,13.60
2022-09-21T10:50:21.581Z,13.70
2022-09-21T10:52:48.827Z,13.70
2022-09-21T10:55:21.625Z,13.70
2022-09-21T10:57:48.897Z,13.70
2022-09-21T11:00:21.260Z,13.80
2022-09-21T11:02:48.713Z,13.80
2022-09-21T11:05:28.630Z,13.90
2022-09-21T11:08:12.541Z,13.90
2022-09-21T11:10:57.404Z,13.90
2022-09-21T11:13:33.668Z,14.00
2022-09-21T11:16:25.968Z,14.00
2022-09-21T11:19:06.641Z,14.10
2022-09-21T11:21:52.341Z,14.10
2022-09-21T11:24:37.864Z,14.20
2022-09-21T11:27:19.261Z,14.30
2022-09-21T11:30:12.140Z,14.30
2022-09-21T11:32:53.946Z,14.20
2022-09-21T11:35:24.916Z,14.30
2022-09-21T11:38:04.455Z,14.40
2022-09-21T11:41:07.053Z,14.40
2022-09-21T11:43:42.388Z,14.30
2022-09-21T11:46:39.240Z,14.30
2022-09-21T11:49:27.703Z,14.40
2022-09-21T11:52:06.835Z,14.60
2022-09-21T11:54:58.446Z,14.60
2022-09-21T11:57:54.219Z,14.70
2022-09-21T12:00:22.994Z,14.70
2022-09-21T12:02:52.623Z,14.80
2022-09-21T12:05:41.070Z,14.90
2022-09-21T12:08:14.686Z,14.90
2022-09-21T12:10:50.841Z,14.90
2022-09-21T12:13:40.563Z,14.90
2022-09-21T12:16:27.814Z,14.90
2022-09-21T12:19:25.006Z,14.90
2022-09-21T12:21:58.779Z,15.00
2022-09-21T12:24:34.411Z,15.10
2022-09-21T12:27:23.219Z,15.00
2022-09-21T12:29:53.857Z,15.00
2022-09-21T12:32:47.413Z,15.10
2022-09-21T12:35:20.783Z,15.00
2022-09-21T12:37:59.661Z,15.00
2022-09-21T12:40:36.478Z,15.00
2022-09-21T12:43:20.005Z,15.10
2022-09-21T12:45:53.006Z,15.20
2022-09-21T12:48:39.490Z,15.20
2022-09-21T12:51:21.735Z,15.20
2022-09-21T12:53:51.241Z,15.30
2022-09-21T12:56:22.404Z,15.20
2022-09-21T12:59:19.710Z,15.20
2022-09-21T13:02:12.919Z,15.20
2022-09-21T13:04:59.349Z,15.20
2022-09-21T13:07:32.795Z,15.30
2022-09-21T13:10:07.306Z,15.30
2022-09-21T13:12:42.037Z,15.40
2022-09-21T13:15:27.407Z,15.50
2022-09-21T13:18:18.976Z,15.40
2022-09-21T13:20:46.128Z,15.50
2022-09-21T13:23:20.351Z,15.50
2022-09-21T13:25:50.185Z,15.60
2022-09-21T13:28:16.701Z,15.60
2022-09-21T13:30:46.220Z,15.60
2022-09-21T13:33:18.881Z,15.60
2022-09-21T13:36:00.282Z,15.60
2022-09-21T13:38:37.170Z,15.70
2022-09-21T13:41:19.243Z,15.70
2022-09-21T13:44:01.093Z,15.80
2022-09-21T13:46:36.998Z,15.80
2022-09-21T13:49:16.327Z,15.90
2022-09-21T13:52:12.091Z,15.90
2022-09-21T13:54:55.368Z,15.90
2022-09-21T13:57:28.542Z,15.80
2022-09-21T14:00:16.266Z,15.90
2022-09-21T14:02:46.515Z,15.80
2022-09-21T14:05:46.189Z,15.70
2022-09-21T14:08:15.837Z,15.80
2022-09-21T14:11:08.304Z,15.80
2022-09-21T14:13:36.452Z,15.90
2022-09-21T14:16:34.232Z,15.90
2022-09-21T14:19:02.314Z,15.90
2022-09-21T14:21:29.745Z,15.90
2022-09-21T14:24:35.083Z,15.90
2022-09-21T14:27:05.028Z,16.00
2022-09-21T14:29:57.734Z,16.00
2022-09-21T14:32:28.120Z,15.90
2022-09-21T14:35:10.794Z,16.00
2022-09-21T14:37:43.192Z,16.10
2022-09-21T14:40:25.401Z,16.10
2022-09-21T14:42:57.310Z,16.10
2022-09-21T14:45:50.419Z,16.10
2022-09-21T14:48:21.710Z,16.10
2022-09-21T14:51:00.146Z,16.00
2022-09-21T14:53:55.756Z,16.00
2022-09-21T14:56:51.547Z,16.00
2022-09-21T14:59:38.471Z,16.10
2022-09-21T15:02:21.913Z,16.10
2022-09-21T15:05:00.258Z,16.10
2022-09-21T15:08:00.870Z,16.10
2022-09-21T15:10:55.010Z,16.10
2022-09-21T15:13:33.177Z,16.20
2022-09-21T15:16:27.457Z,16.10
2022-09-21T15:19:11.603Z,16.20
2022-09-21T15:21:43.400Z,16.10
2022-09-21T15:24:25.316Z,16.10
2022-09-21T15:26:54.955Z,16.20
2022-09-21T15:29:26.879Z,16.10
2022-09-21T15:31:54.129Z,16.10
2022-09-21T15:34:22.340Z,16.10
2022-09-21T15:36:52.084Z,16.10
2022-09-21T15:39:30.106Z,16.20
2022-09-21T15:42:17.634Z,16.20
2022-09-21T15:44:48.417Z,16.20
2022-09-21T15:47:19.405Z,16.20
2022-09-21T15:49:46.164Z,16.10
2022-09-21T15:52:37.720Z,16.10
2022-09-21T15:55:19.701Z,16.10
2022-09-21T15:57:51.263Z,16.10
2022-09-21T16:00:24.153Z,16.00
2022-09-21T16:03:07.380Z,16.00
2022-09-21T16:05:44.055Z,15.90
2022-09-21T16:08:22.467Z,15.90
2022-09-21T16:10:49.953Z,16.00
2022-09-21T16:13:44.022Z,15.90
2022-09-21T16:16:12.952Z,15.90
2022-09-21T16:18:51.451Z,15.90
2022-09-21T16:21:37.705Z,15.90
2022-09-21T16:24:18.585Z,15.90
2022-09-21T16:27:01.044Z,15.90
2022-09-21T16:29:43.149Z,15.90
2022-09-21T16:32:20.333Z,15.90
2022-09-21T16:34:51.785Z,15.80
2022-09-21T16:37:18.360Z,15.80
2022-09-21T16:39:45.369Z,15.80
2022-09-21T16:42:12.934Z,15.80
2022-09-21T16:44:44.705Z,15.80
2022-09-21T16:47:17.557Z,15.70
2022-09-21T16:49:44.999Z,15.70
2022-09-21T16:52:11.667Z,15.60
2022-09-21T16:54:38.421Z,15.60
2022-09-21T16:57:06.341Z,15.50
2022-09-21T16:59:34.591Z,15.50
2022-09-21T17:02:04.879Z,15.50
2022-09-21T17:04:33.433Z,15.50
2022-09-21T17:07:00.771Z,15.40
2022-09-21T17:09:35.322Z,15.40
2022-09-21T17:12:03.599Z,15.40
2022-09-21T17:14:34.794Z,15.40
2022-09-21T17:17:05.622Z,15.40
2022-09-21T17:19:33.031Z,15.30
2022-09-21T17:21:59.616Z,15.30
2022-09-21T17:24:49.237Z,15.30
2022-09-21T17:27:18.984Z,15.20
2022-09-21T17:29:47.809Z,15.20
2022-09-21T17:32:16.337Z,15.10
2022-09-21T17:34:43.039Z,14.90
2022-09-21T17:37:10.209Z,14.90
2022-09-21T17:39:36.785Z,14.90
2022-09-21T17:42:13.672Z,14.90
2022-09-21T17:44:46.045Z,14.80
2022-09-21T17:47:27.672Z,14.70
2022-09-21T17:49:57.370Z,14.70
2022-09-21T17:52:42.883Z,14.70
2022-09-21T17:55:13.304Z,14.60
2022-09-21T17:58:03.872Z,14.60
2022-09-21T18:01:04.769Z,14.50
2022-09-21T18:03:35.802Z,14.40
2022-09-21T18:06:02.644Z,14.40
2022-09-21T18:08:35.396Z,14.30
2022-09-21T18:11:14.212Z,14.30
2022-09-21T18:14:08.149Z,14.30
2022-09-21T18:16:58.967Z,14.30
2022-09-21T18:19:47.164Z,14.10
2022-09-21T18:22:23.894Z,14.10
2022-09-21T18:24:51.805Z,14.00
2022-09-21T18:27:21.330Z,14.00
2022-09-21T18:29:48.246Z,13.90
2022-09-21T18:32:29.905Z,13.80
2022-09-21T18:35:14.697Z,13.80
2022-09-21T18:38:15.004Z,13.70
2022-09-21T18:41:19.198Z,13.70
2022-09-21T18:44:05.038Z,13.60
2022-09-21T18:46:53.398Z,13.50
2022-09-21T18:49:41.696Z,13.50
2022-09-21T18:52:41.657Z,13.40
2022-09-21T18:55:25.368Z,13.40
2022-09-21T18:57:52.925Z,13.30
2022-09-21T19:00:20.610Z,13.30
2022-09-21T19:03:12.270Z,13.20
2022-09-21T19:05:37.075Z,13.10
2022-09-21T19:08:17.193Z,13.10
2022-09-21T19:11:12.158Z,13.00
2022-09-21T19:14:00.323Z,12.90
2022-09-21T19:16:38.003Z,12.90
2022-09-21T19:19:13.526Z,12.90
2022-09-21T19:21:53.681Z,12.90
2022-09-21T19:24:44.144Z,12.80
2022-09-21T19:27:40.082Z,12.70
2022-09-21T19:30:15.091Z,12.70
2022-09-21T19:32:53.361Z,12.60
2022-09-21T19:35:20.285Z,12.70
2022-09-21T19:37:48.643Z,12.70
2022-09-21T19:40:17.733Z,12.60
2022-09-21T19:43:08.922Z,12.60
2022-09-21T19:45:45.123Z,12.50
2022-09-21T19:48:15.790Z,12.40
2022-09-21T19:50:54.487Z,12.40
2022-09-21T19:53:41.007Z,12.30
2022-09-21T19:56:33.215Z,12.30
2022-09-21T19:59:19.331Z,12.20
2022-09-21T20:01:53.632Z,12.20
2022-09-21T20:04:55.630Z,12.10
2022-09-21T20:07:34.739Z,12.10
2022-09-21T20:10:22.834Z,12.10
2022-09-21T20:13:28.265Z,12.00
2022-09-21T20:16:31.129Z,12.00
2022-09-21T20:19:18.235Z,12.00
2022-09-21T20:21:48.670Z,12.00
2022-09-21T20:24:56.755Z,12.00
2022-09-21T20:27:38.556Z,11.90
2022-09-21T20:30:08.507Z,11.90
2022-09-21T20:32:37.617Z,11.90
2022-09-21T20:35:17.112Z,11.80
2022-09-21T20:37:44.398Z,11.80
2022-09-21T20:40:13.208Z,11.70
2022-09-21T20:42:41.179Z,11.60
2022-09-21T20:45:09.511Z,11.60
2022-09-21T20:47:36.127Z,11.50
2022-09-21T20:50:03.458Z,11.50
2022-09-21T20:52:30.441Z,11.50
2022-09-21T20:54:57.008Z,11.50
2022-09-21T20:57:23.570Z,11.40
2022-09-21T20:59:50.111Z,11.40
2022-09-21T21:02:16.791Z,11.30
2022-09-21T21:04:43.337Z,11.30
2022-09-21T21:07:10.067Z,11.30
2022-09-21T21:09:36.651Z,11.30
2022-09-21T21:12:03.296Z,11.30
2022-09-21T21:14:29.867Z,11.30
2022-09-21T21:16:56.530Z,11.20
2022-09-21T21:19:23.393Z,11.10
2022-09-21T21:21:49.927Z,11.10
2022-09-21T21:24:35.164Z,11.10
2022-09-21T21:27:03.209Z,11.10
2022-09-21T21:29:30.976Z,11.10
2022-09-21T21:31:57.941Z,11.10
2022-09-21T21:34:24.706Z,11.10
2022-09-21T21:36:52.431Z,11.10
2022-09-21T21:39:19.263Z,11.10
2022-09-21T21:41:46.464Z,11.10
2022-09-21T21:44:13.055Z,11.10
2022-09-21T21:46:39.576Z,11.00
2022-09-21T21:49:06.505Z,11.10
2022-09-21T21:51:33.225Z,11.00
2022-09-21T21:53:59.937Z,10.90
2022-09-21T21:56:26.695Z,10.90
2022-09-21T21:58:54.317Z,10.80
2022-09-21T22:01:26.560Z,10.80
2022-09-21T22:03:55.748Z,10.80
2022-09-21T22:06:22.726Z,10.70
2022-09-21T22:08:50.279Z,10.70
2022-09-21T22:11:22.249Z,10.70
2022-09-21T22:13:50.280Z,10.70
2022-09-21T22:16:21.643Z,10.70
2022-09-21T22:18:50.304Z,10.70
2022-09-21T22:21:26.987Z,10.70
2022-09-21T22:24:00.317Z,10.70
2022-09-21T22:26:31.578Z,10.60
2022-09-21T22:29:00.367Z,10.60
2022-09-21T22:31:31.316Z,10.50
2022-09-21T22:33:59.213Z,10.50
2022-09-21T22:36:32.355Z,10.40
2022-09-21T22:38:59.695Z,10.30
2022-09-21T22:41:32.251Z,10.30
2022-09-21T22:44:02.235Z,10.20
2022-09-21T22:46:30.955Z,10.20
2022-09-21T22:48:58.456Z,10.20
2022-09-21T22:51:25.061Z,10.20
2022-09-21T22:53:52.691Z,10.10
2022-09-21T22:56:22.007Z,10.10
2022-09-21T22:58:50.955Z,10.10
2022-09-21T23:01:48.799Z,10.10
2022-09-21T23:04:15.593Z,10.00
2022-09-21T23:06:43.941Z,10.00
2022-09-21T23:09:20.775Z,9.90
2022-09-21T23:11:55.511Z,9.80
2022-09-21T23:14:23.176Z,9.70
2022-09-21T23:16:50.163Z,9.80
2022-09-21T23:19:16.840Z,9.80
2022-09-21T23:21:51.150Z,9.80
2022-09-21T23:24:18.686Z,9.80
2022-09-21T23:26:46.204Z,9.80
2022-09-21T23:29:14.948Z,9.80
2022-09-21T23:31:45.998Z,9.70
2022-09-21T23:34:13.292Z,9.80
2022-09-21T23:36:40.813Z,9.80
2022-09-21T23:39:09.795Z,9.80
2022-09-21T23:41:36.803Z,9.80
2022-09-21T23:44:04.584Z,9.70
2022-09-21T23:46:33.832Z,9.70
2022-09-21T23:49:00.916Z,9.70
2022-09-21T23:51:29.928Z,9.60
2022-09-21T23:53:57.372Z,9.60
2022-09-21T23:56:24.842Z,9.60
2022-09-21T23:58:51.832Z,9.60
